sensor_id;sensor_type;location;lat;lon;timestamp;P1;durP1;ratioP1;P2;durP2;ratioP2
2001;SDS011;1003;48.002;7.788;2023-02-15T00:01:47;34.43;;;17.00;;
2001;SDS011;1003;48.002;7.788;2023-02-15T00:04:16;37.60;;;17.47;;
2001;SDS011;1003;48.002;7.788;2023-02-15T00:06:45;37.30;;;15.83;;
2001;SDS011;1003;48.002;7.788;2023-02-15T00:09:13;43.10;;;18.00;;
2001;SDS011;1003;48.002;7.788;2023-02-15T00:11:40;47.53;;;17.60;;
2001;SDS011;1003;48.002;7.788;2023-02-15T00:14:17;29.77;;;15.77;;
2001;SDS011;1003;48.002;7.788;2023-02-15T00:16:46;42.37;;;18.17;;
2001;SDS011;1003;48.002;7.788;2023-02-15T00:19:16;39.17;;;16.53;;
2001;SDS011;1003;48.002;7.788;2023-02-15T00:21:45;32.27;;;17.07;;
2001;SDS011;1003;48.002;7.788;2023-02-15T00:24:14;32.73;;;16.33;;
2001;SDS011;1003;48.002;7.788;2023-02-15T00:26:44;32.30;;;16.10;;
2001;SDS011;1003;48.002;7.788;2023-02-15T00:29:13;38.03;;;17.13;;
2001;SDS011;1003;48.002;7.788;2023-02-15T00:31:44;36.70;;;17.13;;
2001;SDS011;1003;48.002;7.788;2023-02-15T00:34:12;50.23;;;18.23;;
2001;SDS011;1003;48.002;7.788;2023-02-15T00:36:43;35.73;;;16.40;;
2001;SDS011;1003;48.002;7.788;2023-02-15T00:39:11;49.27;;;19.37;;
2001;SDS011;1003;48.002;7.788;2023-02-15T00:41:39;45.93;;;18.03;;
2001;SDS011;1003;48.002;7.788;2023-02-15T00:44:07;41.33;;;17.63;;
2001;SDS011;1003;48.002;7.788;2023-02-15T00:46:36;35.90;;;17.07;;
2001;SDS011;1003;48.002;7.788;2023-02-15T00:49:03;38.83;;;17.57;;
2001;SDS011;1003;48.002;7.788;2023-02-15T00:51:31;38.07;;;17.07;;
2001;SDS011;1003;48.002;7.788;2023-02-15T00:53:58;35.60;;;15.80;;
2001;SDS011;1003;48.002;7.788;2023-02-15T00:56:25;31.17;;;15.13;;
2001;SDS011;1003;48.002;7.788;2023-02-15T00:58:53;35.60;;;15.57;;
2001;SDS011;1003;48.002;7.788;2023-02-15T01:01:22;39.83;;;16.50;;
2001;SDS011;1003;48.002;7.788;2023-02-15T01:03:52;79.20;;;19.00;;
2001;SDS011;1003;48.002;7.788;2023-02-15T01:06:19;34.83;;;16.13;;
2001;SDS011;1003;48.002;7.788;2023-02-15T01:08:46;51.17;;;18.83;;
2001;SDS011;1003;48.002;7.788;2023-02-15T01:11:14;47.03;;;17.37;;
2001;SDS011;1003;48.002;7.788;2023-02-15T01:13:46;46.43;;;17.50;;
2001;SDS011;1003;48.002;7.788;2023-02-15T01:16:14;41.37;;;16.07;;
2001;SDS011;1003;48.002;7.788;2023-02-15T01:18:42;44.23;;;16.23;;
2001;SDS011;1003;48.002;7.788;2023-02-15T01:21:11;57.70;;;18.33;;
2001;SDS011;1003;48.002;7.788;2023-02-15T01:23:41;58.53;;;18.60;;
2001;SDS011;1003;48.002;7.788;2023-02-15T01:26:09;41.70;;;17.27;;
2001;SDS011;1003;48.002;7.788;2023-02-15T01:28:37;67.67;;;18.70;;
2001;SDS011;1003;48.002;7.788;2023-02-15T01:31:05;57.30;;;17.57;;
2001;SDS011;1003;48.002;7.788;2023-02-15T01:33:34;43.43;;;17.30;;
2001;SDS011;1003;48.002;7.788;2023-02-15T01:36:02;43.50;;;16.83;;
2001;SDS011;1003;48.002;7.788;2023-02-15T01:38:32;52.27;;;17.67;;
2001;SDS011;1003;48.002;7.788;2023-02-15T01:41:00;31.50;;;15.80;;
2001;SDS011;1003;48.002;7.788;2023-02-15T01:43:41;42.03;;;17.77;;
2001;SDS011;1003;48.002;7.788;2023-02-15T01:46:10;41.17;;;15.90;;
2001;SDS011;1003;48.002;7.788;2023-02-15T01:48:43;50.10;;;15.67;;
2001;SDS011;1003;48.002;7.788;2023-02-15T01:51:14;40.20;;;15.37;;
2001;SDS011;1003;48.002;7.788;2023-02-15T01:53:49;38.00;;;15.23;;
2001;SDS011;1003;48.002;7.788;2023-02-15T01:56:24;32.37;;;14.17;;
2001;SDS011;1003;48.002;7.788;2023-02-15T01:58:56;30.07;;;14.17;;
2001;SDS011;1003;48.002;7.788;2023-02-15T02:01:30;33.27;;;15.33;;
2001;SDS011;1003;48.002;7.788;2023-02-15T02:03:59;31.37;;;15.13;;
2001;SDS011;1003;48.002;7.788;2023-02-15T02:06:35;27.23;;;14.53;;
2001;SDS011;1003;48.002;7.788;2023-02-15T02:09:06;32.40;;;15.17;;
2001;SDS011;1003;48.002;7.788;2023-02-15T02:11:35;32.17;;;16.37;;
2001;SDS011;1003;48.002;7.788;2023-02-15T02:14:02;56.03;;;17.40;;
2001;SDS011;1003;48.002;7.788;2023-02-15T02:16:32;38.47;;;15.77;;
2001;SDS011;1003;48.002;7.788;2023-02-15T02:19:22;34.13;;;16.63;;
2001;SDS011;1003;48.002;7.788;2023-02-15T02:22:37;30.53;;;14.97;;
2001;SDS011;1003;48.002;7.788;2023-02-15T02:25:42;33.03;;;14.70;;
2001;SDS011;1003;48.002;7.788;2023-02-15T02:28:57;30.03;;;15.13;;
2001;SDS011;1003;48.002;7.788;2023-02-15T02:35:24;28.23;;;14.03;;
2001;SDS011;1003;48.002;7.788;2023-02-15T02:37:59;29.87;;;15.40;;
2001;SDS011;1003;48.002;7.788;2023-02-15T02:40:51;25.73;;;13.23;;
2001;SDS011;1003;48.002;7.788;2023-02-15T02:43:35;29.73;;;14.50;;
2001;SDS011;1003;48.002;7.788;2023-02-15T02:46:15;34.27;;;15.83;;
2001;SDS011;1003;48.002;7.788;2023-02-15T02:48:48;30.40;;;14.03;;
2001;SDS011;1003;48.002;7.788;2023-02-15T02:51:17;27.87;;;13.80;;
2001;SDS011;1003;48.002;7.788;2023-02-15T02:53:47;35.47;;;15.77;;
2001;SDS011;1003;48.002;7.788;2023-02-15T02:56:21;30.23;;;14.17;;
2001;SDS011;1003;48.002;7.788;2023-02-15T02:58:56;24.23;;;13.73;;
2001;SDS011;1003;48.002;7.788;2023-02-15T03:01:31;34.00;;;14.13;;
2001;SDS011;1003;48.002;7.788;2023-02-15T03:04:04;40.40;;;14.63;;
2001;SDS011;1003;48.002;7.788;2023-02-15T03:06:38;40.43;;;15.43;;
2001;SDS011;1003;48.002;7.788;2023-02-15T03:09:14;46.00;;;15.03;;
2001;SDS011;1003;48.002;7.788;2023-02-15T03:11:49;26.27;;;13.63;;
2001;SDS011;1003;48.002;7.788;2023-02-15T03:14:18;26.63;;;13.10;;
2001;SDS011;1003;48.002;7.788;2023-02-15T03:16:46;30.20;;;13.23;;
2001;SDS011;1003;48.002;7.788;2023-02-15T03:19:19;25.90;;;13.57;;
2001;SDS011;1003;48.002;7.788;2023-02-15T03:21:55;29.67;;;13.63;;
2001;SDS011;1003;48.002;7.788;2023-02-15T03:24:34;28.23;;;14.53;;
2001;SDS011;1003;48.002;7.788;2023-02-15T03:27:08;28.57;;;13.60;;
2001;SDS011;1003;48.002;7.788;2023-02-15T03:29:42;28.27;;;13.53;;
2001;SDS011;1003;48.002;7.788;2023-02-15T03:32:13;30.93;;;13.60;;
2001;SDS011;1003;48.002;7.788;2023-02-15T03:34:42;28.70;;;13.40;;
2001;SDS011;1003;48.002;7.788;2023-02-15T03:37:13;28.60;;;13.17;;
2001;SDS011;1003;48.002;7.788;2023-02-15T03:39:49;32.27;;;13.03;;
2001;SDS011;1003;48.002;7.788;2023-02-15T03:42:44;26.33;;;12.43;;
2001;SDS011;1003;48.002;7.788;2023-02-15T03:45:17;27.87;;;12.47;;
2001;SDS011;1003;48.002;7.788;2023-02-15T03:47:52;26.37;;;12.87;;
2001;SDS011;1003;48.002;7.788;2023-02-15T03:50:24;24.77;;;12.83;;
2001;SDS011;1003;48.002;7.788;2023-02-15T03:53:16;28.77;;;12.57;;
2001;SDS011;1003;48.002;7.788;2023-02-15T03:55:48;24.70;;;12.80;;
2001;SDS011;1003;48.002;7.788;2023-02-15T03:58:16;30.80;;;13.33;;
2001;SDS011;1003;48.002;7.788;2023-02-15T04:01:06;29.13;;;13.03;;
2001;SDS011;1003;48.002;7.788;2023-02-15T04:04:05;30.57;;;12.77;;
2001;SDS011;1003;48.002;7.788;2023-02-15T04:06:42;23.97;;;12.10;;
2001;SDS011;1003;48.002;7.788;2023-02-15T04:09:11;21.43;;;12.40;;
2001;SDS011;1003;48.002;7.788;2023-02-15T04:11:56;24.70;;;12.63;;
2001;SDS011;1003;48.002;7.788;2023-02-15T04:14:23;32.07;;;13.30;;
2001;SDS011;1003;48.002;7.788;2023-02-15T04:17:08;23.60;;;12.13;;
2001;SDS011;1003;48.002;7.788;2023-02-15T04:19:36;30.30;;;13.23;;
2001;SDS011;1003;48.002;7.788;2023-02-15T04:22:20;25.27;;;12.43;;
2001;SDS011;1003;48.002;7.788;2023-02-15T04:25:07;24.37;;;12.80;;
2001;SDS011;1003;48.002;7.788;2023-02-15T04:27:37;24.00;;;12.50;;
2001;SDS011;1003;48.002;7.788;2023-02-15T04:30:05;30.67;;;13.10;;
2001;SDS011;1003;48.002;7.788;2023-02-15T04:32:33;23.87;;;12.93;;
2001;SDS011;1003;48.002;7.788;2023-02-15T04:35:01;21.50;;;11.43;;
2001;SDS011;1003;48.002;7.788;2023-02-15T04:37:29;23.67;;;11.77;;
2001;SDS011;1003;48.002;7.788;2023-02-15T04:39:57;21.30;;;12.03;;
2001;SDS011;1003;48.002;7.788;2023-02-15T04:42:26;24.93;;;11.67;;
2001;SDS011;1003;48.002;7.788;2023-02-15T04:44:53;24.00;;;12.47;;
2001;SDS011;1003;48.002;7.788;2023-02-15T04:47:20;22.93;;;11.40;;
2001;SDS011;1003;48.002;7.788;2023-02-15T04:49:48;22.47;;;12.00;;
2001;SDS011;1003;48.002;7.788;2023-02-15T04:52:15;21.50;;;11.63;;
2001;SDS011;1003;48.002;7.788;2023-02-15T04:54:43;23.77;;;11.93;;
2001;SDS011;1003;48.002;7.788;2023-02-15T04:57:10;26.47;;;12.33;;
2001;SDS011;1003;48.002;7.788;2023-02-15T04:59:39;21.80;;;12.37;;
2001;SDS011;1003;48.002;7.788;2023-02-15T05:02:06;23.60;;;12.93;;
2001;SDS011;1003;48.002;7.788;2023-02-15T05:04:33;23.43;;;12.10;;
2001;SDS011;1003;48.002;7.788;2023-02-15T05:07:00;20.83;;;11.50;;
2001;SDS011;1003;48.002;7.788;2023-02-15T05:09:28;26.47;;;12.90;;
2001;SDS011;1003;48.002;7.788;2023-02-15T05:11:55;21.43;;;11.17;;
2001;SDS011;1003;48.002;7.788;2023-02-15T05:14:22;21.33;;;11.73;;
2001;SDS011;1003;48.002;7.788;2023-02-15T05:16:50;21.17;;;11.10;;
2001;SDS011;1003;48.002;7.788;2023-02-15T05:19:18;20.87;;;11.63;;
2001;SDS011;1003;48.002;7.788;2023-02-15T05:21:48;22.53;;;11.63;;
2001;SDS011;1003;48.002;7.788;2023-02-15T05:24:15;21.33;;;10.80;;
2001;SDS011;1003;48.002;7.788;2023-02-15T05:27:00;17.27;;;9.77;;
2001;SDS011;1003;48.002;7.788;2023-02-15T05:29:44;19.50;;;10.83;;
2001;SDS011;1003;48.002;7.788;2023-02-15T05:32:13;20.50;;;11.57;;
2001;SDS011;1003;48.002;7.788;2023-02-15T05:34:41;19.90;;;11.27;;
2001;SDS011;1003;48.002;7.788;2023-02-15T05:37:08;20.10;;;10.63;;
2001;SDS011;1003;48.002;7.788;2023-02-15T05:39:35;20.77;;;10.67;;
2001;SDS011;1003;48.002;7.788;2023-02-15T05:42:02;19.20;;;10.13;;
2001;SDS011;1003;48.002;7.788;2023-02-15T05:44:30;20.57;;;10.03;;
2001;SDS011;1003;48.002;7.788;2023-02-15T05:46:57;21.10;;;10.17;;
2001;SDS011;1003;48.002;7.788;2023-02-15T05:49:25;18.43;;;9.93;;
2001;SDS011;1003;48.002;7.788;2023-02-15T05:51:52;22.70;;;10.00;;
2001;SDS011;1003;48.002;7.788;2023-02-15T05:54:19;21.33;;;9.90;;
2001;SDS011;1003;48.002;7.788;2023-02-15T05:56:46;18.40;;;9.60;;
2001;SDS011;1003;48.002;7.788;2023-02-15T05:59:13;21.13;;;10.33;;
2001;SDS011;1003;48.002;7.788;2023-02-15T06:01:41;34.87;;;11.03;;
2001;SDS011;1003;48.002;7.788;2023-02-15T06:04:08;17.93;;;9.57;;
2001;SDS011;1003;48.002;7.788;2023-02-15T06:06:36;23.97;;;9.97;;
2001;SDS011;1003;48.002;7.788;2023-02-15T06:09:03;18.23;;;9.77;;
2001;SDS011;1003;48.002;7.788;2023-02-15T06:11:30;49.10;;;11.33;;
2001;SDS011;1003;48.002;7.788;2023-02-15T06:13:57;25.77;;;9.60;;
2001;SDS011;1003;48.002;7.788;2023-02-15T06:16:24;26.70;;;8.80;;
2001;SDS011;1003;48.002;7.788;2023-02-15T06:18:51;16.10;;;8.77;;
2001;SDS011;1003;48.002;7.788;2023-02-15T06:21:18;19.37;;;9.40;;
2001;SDS011;1003;48.002;7.788;2023-02-15T06:23:47;13.37;;;8.87;;
2001;SDS011;1003;48.002;7.788;2023-02-15T06:26:14;38.27;;;11.30;;
2001;SDS011;1003;48.002;7.788;2023-02-15T06:28:41;24.90;;;9.73;;
2001;SDS011;1003;48.002;7.788;2023-02-15T06:31:08;21.63;;;9.50;;
2001;SDS011;1003;48.002;7.788;2023-02-15T06:33:35;17.83;;;9.10;;
2001;SDS011;1003;48.002;7.788;2023-02-15T06:36:02;19.10;;;9.93;;
2001;SDS011;1003;48.002;7.788;2023-02-15T06:38:29;35.97;;;10.93;;
2001;SDS011;1003;48.002;7.788;2023-02-15T06:40:58;45.30;;;10.97;;
2001;SDS011;1003;48.002;7.788;2023-02-15T06:43:25;23.10;;;10.03;;
2001;SDS011;1003;48.002;7.788;2023-02-15T06:45:52;30.37;;;10.33;;
2001;SDS011;1003;48.002;7.788;2023-02-15T06:48:19;25.33;;;11.47;;
2001;SDS011;1003;48.002;7.788;2023-02-15T06:50:46;28.70;;;11.13;;
2001;SDS011;1003;48.002;7.788;2023-02-15T06:53:14;24.50;;;10.33;;
2001;SDS011;1003;48.002;7.788;2023-02-15T06:55:41;15.83;;;9.40;;
2001;SDS011;1003;48.002;7.788;2023-02-15T06:58:09;19.70;;;9.80;;
2001;SDS011;1003;48.002;7.788;2023-02-15T07:00:37;23.00;;;9.77;;
2001;SDS011;1003;48.002;7.788;2023-02-15T07:03:04;17.67;;;10.00;;
2001;SDS011;1003;48.002;7.788;2023-02-15T07:05:32;20.20;;;9.57;;
2001;SDS011;1003;48.002;7.788;2023-02-15T07:08:00;53.67;;;12.77;;
2001;SDS011;1003;48.002;7.788;2023-02-15T07:10:28;47.03;;;12.00;;
2001;SDS011;1003;48.002;7.788;2023-02-15T07:12:55;56.70;;;12.03;;
2001;SDS011;1003;48.002;7.788;2023-02-15T07:15:23;57.30;;;12.63;;
2001;SDS011;1003;48.002;7.788;2023-02-15T07:17:50;35.70;;;11.03;;
2001;SDS011;1003;48.002;7.788;2023-02-15T07:20:18;28.13;;;10.83;;
2001;SDS011;1003;48.002;7.788;2023-02-15T07:22:47;25.37;;;9.90;;
2001;SDS011;1003;48.002;7.788;2023-02-15T07:25:16;24.60;;;11.30;;
2001;SDS011;1003;48.002;7.788;2023-02-15T07:27:44;25.83;;;10.43;;
2001;SDS011;1003;48.002;7.788;2023-02-15T07:30:12;35.37;;;11.37;;
2001;SDS011;1003;48.002;7.788;2023-02-15T07:32:43;28.87;;;10.73;;
2001;SDS011;1003;48.002;7.788;2023-02-15T07:35:28;29.97;;;11.17;;
2001;SDS011;1003;48.002;7.788;2023-02-15T07:37:55;34.27;;;11.80;;
2001;SDS011;1003;48.002;7.788;2023-02-15T07:40:22;55.47;;;13.17;;
2001;SDS011;1003;48.002;7.788;2023-02-15T07:42:50;51.87;;;12.67;;
2001;SDS011;1003;48.002;7.788;2023-02-15T07:45:19;56.00;;;12.53;;
2001;SDS011;1003;48.002;7.788;2023-02-15T07:47:48;43.63;;;11.20;;
2001;SDS011;1003;48.002;7.788;2023-02-15T07:50:15;27.80;;;10.63;;
2001;SDS011;1003;48.002;7.788;2023-02-15T07:52:43;52.30;;;12.67;;
2001;SDS011;1003;48.002;7.788;2023-02-15T07:55:10;28.90;;;10.93;;
2001;SDS011;1003;48.002;7.788;2023-02-15T07:57:41;23.23;;;11.00;;
2001;SDS011;1003;48.002;7.788;2023-02-15T08:00:10;31.83;;;10.87;;
2001;SDS011;1003;48.002;7.788;2023-02-15T08:02:38;25.67;;;11.50;;
2001;SDS011;1003;48.002;7.788;2023-02-15T08:05:07;17.03;;;9.53;;
2001;SDS011;1003;48.002;7.788;2023-02-15T08:07:34;23.70;;;10.63;;
2001;SDS011;1003;48.002;7.788;2023-02-15T08:10:01;29.97;;;11.10;;
2001;SDS011;1003;48.002;7.788;2023-02-15T08:12:29;25.47;;;11.80;;
2001;SDS011;1003;48.002;7.788;2023-02-15T08:14:56;32.90;;;11.37;;
2001;SDS011;1003;48.002;7.788;2023-02-15T08:17:23;20.43;;;10.50;;
2001;SDS011;1003;48.002;7.788;2023-02-15T08:19:50;33.70;;;11.30;;
2001;SDS011;1003;48.002;7.788;2023-02-15T08:22:19;35.80;;;11.00;;
2001;SDS011;1003;48.002;7.788;2023-02-15T08:24:46;24.93;;;11.30;;
2001;SDS011;1003;48.002;7.788;2023-02-15T08:27:13;27.70;;;10.80;;
2001;SDS011;1003;48.002;7.788;2023-02-15T08:29:40;19.77;;;10.43;;
2001;SDS011;1003;48.002;7.788;2023-02-15T08:32:07;33.43;;;11.30;;
2001;SDS011;1003;48.002;7.788;2023-02-15T08:34:37;23.40;;;9.87;;
2001;SDS011;1003;48.002;7.788;2023-02-15T08:37:07;30.80;;;9.70;;
2001;SDS011;1003;48.002;7.788;2023-02-15T08:39:35;20.20;;;9.63;;
2001;SDS011;1003;48.002;7.788;2023-02-15T08:42:03;18.40;;;9.10;;
2001;SDS011;1003;48.002;7.788;2023-02-15T08:44:30;16.83;;;9.83;;
2001;SDS011;1003;48.002;7.788;2023-02-15T08:46:57;20.30;;;11.60;;
2001;SDS011;1003;48.002;7.788;2023-02-15T08:49:28;23.20;;;13.37;;
2001;SDS011;1003;48.002;7.788;2023-02-15T08:51:55;17.30;;;10.00;;
2001;SDS011;1003;48.002;7.788;2023-02-15T08:54:22;16.13;;;8.93;;
2001;SDS011;1003;48.002;7.788;2023-02-15T08:56:51;16.23;;;9.00;;
2001;SDS011;1003;48.002;7.788;2023-02-15T08:59:19;14.27;;;8.33;;
2001;SDS011;1003;48.002;7.788;2023-02-15T09:01:48;17.10;;;9.40;;
2001;SDS011;1003;48.002;7.788;2023-02-15T09:04:17;16.03;;;9.70;;
2001;SDS011;1003;48.002;7.788;2023-02-15T09:06:45;14.93;;;8.67;;
2001;SDS011;1003;48.002;7.788;2023-02-15T09:09:14;15.27;;;8.63;;
2001;SDS011;1003;48.002;7.788;2023-02-15T09:11:43;16.90;;;9.17;;
2001;SDS011;1003;48.002;7.788;2023-02-15T09:14:15;15.37;;;8.77;;
2001;SDS011;1003;48.002;7.788;2023-02-15T09:16:45;18.13;;;9.73;;
2001;SDS011;1003;48.002;7.788;2023-02-15T09:19:16;17.27;;;9.67;;
2001;SDS011;1003;48.002;7.788;2023-02-15T09:21:44;17.20;;;9.83;;
2001;SDS011;1003;48.002;7.788;2023-02-15T09:24:12;14.57;;;8.73;;
2001;SDS011;1003;48.002;7.788;2023-02-15T09:26:42;16.43;;;8.80;;
2001;SDS011;1003;48.002;7.788;2023-02-15T09:29:12;17.47;;;8.87;;
2001;SDS011;1003;48.002;7.788;2023-02-15T09:31:42;16.23;;;9.27;;
2001;SDS011;1003;48.002;7.788;2023-02-15T09:34:13;15.43;;;9.20;;
2001;SDS011;1003;48.002;7.788;2023-02-15T09:36:42;16.53;;;9.23;;
2001;SDS011;1003;48.002;7.788;2023-02-15T09:39:10;17.93;;;9.90;;
2001;SDS011;1003;48.002;7.788;2023-02-15T09:41:47;19.13;;;9.63;;
2001;SDS011;1003;48.002;7.788;2023-02-15T09:45:12;16.70;;;9.70;;
2001;SDS011;1003;48.002;7.788;2023-02-15T09:47:55;16.97;;;10.07;;
2001;SDS011;1003;48.002;7.788;2023-02-15T09:50:57;16.13;;;9.37;;
2001;SDS011;1003;48.002;7.788;2023-02-15T09:53:58;16.40;;;10.10;;
2001;SDS011;1003;48.002;7.788;2023-02-15T09:56:55;16.77;;;10.13;;
2001;SDS011;1003;48.002;7.788;2023-02-15T09:59:35;18.50;;;10.23;;
2001;SDS011;1003;48.002;7.788;2023-02-15T10:02:18;17.20;;;10.67;;
2001;SDS011;1003;48.002;7.788;2023-02-15T10:05:06;15.10;;;9.70;;
2001;SDS011;1003;48.002;7.788;2023-02-15T10:08:00;20.50;;;10.43;;
2001;SDS011;1003;48.002;7.788;2023-02-15T10:11:01;19.57;;;11.03;;
2001;SDS011;1003;48.002;7.788;2023-02-15T10:13:58;18.47;;;10.70;;
2001;SDS011;1003;48.002;7.788;2023-02-15T10:16:46;16.23;;;9.83;;
2001;SDS011;1003;48.002;7.788;2023-02-15T10:19:30;16.77;;;9.97;;
2001;SDS011;1003;48.002;7.788;2023-02-15T10:22:10;17.60;;;10.47;;
2001;SDS011;1003;48.002;7.788;2023-02-15T10:25:03;19.23;;;11.27;;
2001;SDS011;1003;48.002;7.788;2023-02-15T10:27:55;18.07;;;10.50;;
2001;SDS011;1003;48.002;7.788;2023-02-15T10:30:33;17.80;;;10.37;;
2001;SDS011;1003;48.002;7.788;2023-02-15T10:33:13;19.67;;;10.37;;
2001;SDS011;1003;48.002;7.788;2023-02-15T10:36:00;16.33;;;10.23;;
2001;SDS011;1003;48.002;7.788;2023-02-15T10:38:47;17.07;;;10.37;;
2001;SDS011;1003;48.002;7.788;2023-02-15T10:41:29;20.47;;;10.90;;
2001;SDS011;1003;48.002;7.788;2023-02-15T10:44:22;17.00;;;9.50;;
2001;SDS011;1003;48.002;7.788;2023-02-15T10:47:08;17.20;;;10.23;;
2001;SDS011;1003;48.002;7.788;2023-02-15T10:50:01;18.40;;;10.33;;
2001;SDS011;1003;48.002;7.788;2023-02-15T10:52:51;16.23;;;9.60;;
2001;SDS011;1003;48.002;7.788;2023-02-15T10:55:39;18.27;;;10.13;;
2001;SDS011;1003;48.002;7.788;2023-02-15T10:58:21;17.97;;;10.80;;
2001;SDS011;1003;48.002;7.788;2023-02-15T11:01:06;20.70;;;10.97;;
2001;SDS011;1003;48.002;7.788;2023-02-15T11:03:59;17.70;;;10.67;;
2001;SDS011;1003;48.002;7.788;2023-02-15T11:06:59;17.93;;;10.87;;
2001;SDS011;1003;48.002;7.788;2023-02-15T11:09:37;18.27;;;11.27;;
2001;SDS011;1003;48.002;7.788;2023-02-15T11:12:16;19.03;;;10.77;;
2001;SDS011;1003;48.002;7.788;2023-02-15T11:14:49;17.50;;;11.10;;
2001;SDS011;1003;48.002;7.788;2023-02-15T11:17:25;17.33;;;10.53;;
2001;SDS011;1003;48.002;7.788;2023-02-15T11:20:05;16.47;;;10.17;;
2001;SDS011;1003;48.002;7.788;2023-02-15T11:22:46;17.47;;;10.70;;
2001;SDS011;1003;48.002;7.788;2023-02-15T11:25:19;17.97;;;11.20;;
2001;SDS011;1003;48.002;7.788;2023-02-15T11:27:52;20.33;;;11.20;;
2001;SDS011;1003;48.002;7.788;2023-02-15T11:30:22;18.00;;;10.93;;
2001;SDS011;1003;48.002;7.788;2023-02-15T11:32:54;18.20;;;11.60;;
2001;SDS011;1003;48.002;7.788;2023-02-15T11:35:27;15.93;;;10.40;;
2001;SDS011;1003;48.002;7.788;2023-02-15T11:38:04;20.07;;;11.87;;
2001;SDS011;1003;48.002;7.788;2023-02-15T11:40:43;20.87;;;11.70;;
2001;SDS011;1003;48.002;7.788;2023-02-15T11:43:16;21.40;;;12.40;;
2001;SDS011;1003;48.002;7.788;2023-02-15T11:45:47;19.23;;;11.63;;
2001;SDS011;1003;48.002;7.788;2023-02-15T11:48:15;19.87;;;11.40;;
2001;SDS011;1003;48.002;7.788;2023-02-15T11:50:43;20.10;;;11.43;;
2001;SDS011;1003;48.002;7.788;2023-02-15T11:53:12;19.57;;;10.87;;
2001;SDS011;1003;48.002;7.788;2023-02-15T11:55:46;20.63;;;11.57;;
2001;SDS011;1003;48.002;7.788;2023-02-15T11:58:19;21.17;;;12.03;;
2001;SDS011;1003;48.002;7.788;2023-02-15T12:00:56;19.27;;;11.60;;
2001;SDS011;1003;48.002;7.788;2023-02-15T12:03:35;23.53;;;11.93;;
2001;SDS011;1003;48.002;7.788;2023-02-15T12:06:13;23.97;;;11.73;;
2001;SDS011;1003;48.002;7.788;2023-02-15T12:08:55;21.47;;;12.30;;
2001;SDS011;1003;48.002;7.788;2023-02-15T12:11:33;20.87;;;12.23;;
2001;SDS011;1003;48.002;7.788;2023-02-15T12:14:04;22.50;;;12.77;;
2001;SDS011;1003;48.002;7.788;2023-02-15T12:16:34;22.47;;;12.63;;
2001;SDS011;1003;48.002;7.788;2023-02-15T12:19:17;24.10;;;12.97;;
2001;SDS011;1003;48.002;7.788;2023-02-15T12:21:56;23.33;;;13.13;;
2001;SDS011;1003;48.002;7.788;2023-02-15T12:24:26;25.27;;;13.50;;
2001;SDS011;1003;48.002;7.788;2023-02-15T12:26:59;23.03;;;12.47;;
2001;SDS011;1003;48.002;7.788;2023-02-15T12:29:30;22.70;;;13.00;;
2001;SDS011;1003;48.002;7.788;2023-02-15T12:32:08;23.40;;;12.90;;
2001;SDS011;1003;48.002;7.788;2023-02-15T12:34:43;21.33;;;12.30;;
2001;SDS011;1003;48.002;7.788;2023-02-15T12:37:15;22.90;;;12.80;;
2001;SDS011;1003;48.002;7.788;2023-02-15T12:39:52;21.53;;;12.97;;
2001;SDS011;1003;48.002;7.788;2023-02-15T12:42:23;25.27;;;14.33;;
2001;SDS011;1003;48.002;7.788;2023-02-15T12:44:56;23.93;;;13.40;;
2001;SDS011;1003;48.002;7.788;2023-02-15T12:47:26;22.77;;;13.73;;
2001;SDS011;1003;48.002;7.788;2023-02-15T12:50:06;23.00;;;13.80;;
2001;SDS011;1003;48.002;7.788;2023-02-15T12:52:43;24.07;;;13.00;;
2001;SDS011;1003;48.002;7.788;2023-02-15T12:55:18;21.57;;;12.53;;
2001;SDS011;1003;48.002;7.788;2023-02-15T12:57:50;23.50;;;13.57;;
2001;SDS011;1003;48.002;7.788;2023-02-15T13:00:42;24.10;;;13.53;;
2001;SDS011;1003;48.002;7.788;2023-02-15T13:03:15;23.60;;;13.33;;
2001;SDS011;1003;48.002;7.788;2023-02-15T13:05:45;23.80;;;13.53;;
2001;SDS011;1003;48.002;7.788;2023-02-15T13:08:18;22.60;;;13.33;;
2001;SDS011;1003;48.002;7.788;2023-02-15T13:10:52;22.07;;;12.80;;
2001;SDS011;1003;48.002;7.788;2023-02-15T13:13:25;20.40;;;12.43;;
2001;SDS011;1003;48.002;7.788;2023-02-15T13:15:56;20.93;;;12.70;;
2001;SDS011;1003;48.002;7.788;2023-02-15T13:18:29;19.17;;;11.73;;
2001;SDS011;1003;48.002;7.788;2023-02-15T13:21:01;21.93;;;12.83;;
2001;SDS011;1003;48.002;7.788;2023-02-15T13:23:37;19.47;;;12.20;;
2001;SDS011;1003;48.002;7.788;2023-02-15T13:26:09;20.33;;;11.90;;
2001;SDS011;1003;48.002;7.788;2023-02-15T13:28:44;22.83;;;12.83;;
2001;SDS011;1003;48.002;7.788;2023-02-15T13:31:15;19.70;;;13.10;;
2001;SDS011;1003;48.002;7.788;2023-02-15T13:33:48;20.57;;;12.63;;
2001;SDS011;1003;48.002;7.788;2023-02-15T13:36:22;22.10;;;13.23;;
2001;SDS011;1003;48.002;7.788;2023-02-15T13:38:58;21.07;;;13.00;;
2001;SDS011;1003;48.002;7.788;2023-02-15T13:41:45;22.53;;;13.13;;
2001;SDS011;1003;48.002;7.788;2023-02-15T13:44:27;21.07;;;12.30;;
2001;SDS011;1003;48.002;7.788;2023-02-15T13:47:23;21.83;;;12.93;;
2001;SDS011;1003;48.002;7.788;2023-02-15T13:50:10;20.43;;;12.07;;
2001;SDS011;1003;48.002;7.788;2023-02-15T13:53:02;19.70;;;12.47;;
2001;SDS011;1003;48.002;7.788;2023-02-15T13:55:50;23.23;;;13.93;;
2001;SDS011;1003;48.002;7.788;2023-02-15T13:58:29;23.07;;;13.33;;
2001;SDS011;1003;48.002;7.788;2023-02-15T14:01:49;20.90;;;12.53;;
2001;SDS011;1003;48.002;7.788;2023-02-15T14:04:26;21.73;;;12.53;;
2001;SDS011;1003;48.002;7.788;2023-02-15T14:07:21;21.60;;;12.60;;
2001;SDS011;1003;48.002;7.788;2023-02-15T14:10:22;19.97;;;12.17;;
2001;SDS011;1003;48.002;7.788;2023-02-15T14:16:19;20.23;;;12.93;;
2001;SDS011;1003;48.002;7.788;2023-02-15T14:19:02;19.03;;;12.00;;
2001;SDS011;1003;48.002;7.788;2023-02-15T14:21:44;20.20;;;12.40;;
2001;SDS011;1003;48.002;7.788;2023-02-15T14:24:25;21.87;;;13.17;;
2001;SDS011;1003;48.002;7.788;2023-02-15T14:27:05;17.77;;;12.00;;
2001;SDS011;1003;48.002;7.788;2023-02-15T14:29:51;18.37;;;11.70;;
2001;SDS011;1003;48.002;7.788;2023-02-15T14:32:25;17.67;;;11.50;;
2001;SDS011;1003;48.002;7.788;2023-02-15T14:35:02;19.83;;;12.70;;
2001;SDS011;1003;48.002;7.788;2023-02-15T14:37:35;18.13;;;11.70;;
2001;SDS011;1003;48.002;7.788;2023-02-15T14:40:16;20.33;;;11.73;;
2001;SDS011;1003;48.002;7.788;2023-02-15T14:43:15;19.13;;;12.20;;
2001;SDS011;1003;48.002;7.788;2023-02-15T14:45:59;22.00;;;12.87;;
2001;SDS011;1003;48.002;7.788;2023-02-15T14:48:37;20.67;;;12.67;;
2001;SDS011;1003;48.002;7.788;2023-02-15T14:51:11;18.63;;;12.23;;
2001;SDS011;1003;48.002;7.788;2023-02-15T14:57:27;17.87;;;11.47;;
2001;SDS011;1003;48.002;7.788;2023-02-15T14:59:59;19.70;;;11.73;;
2001;SDS011;1003;48.002;7.788;2023-02-15T15:02:48;21.17;;;13.00;;
2001;SDS011;1003;48.002;7.788;2023-02-15T15:05:20;21.70;;;13.10;;
2001;SDS011;1003;48.002;7.788;2023-02-15T15:07:57;20.03;;;12.90;;
2001;SDS011;1003;48.002;7.788;2023-02-15T15:10:36;21.07;;;12.43;;
2001;SDS011;1003;48.002;7.788;2023-02-15T15:22:26;23.70;;;12.87;;
2001;SDS011;1003;48.002;7.788;2023-02-15T15:24:57;21.13;;;12.43;;
2001;SDS011;1003;48.002;7.788;2023-02-15T15:27:38;22.97;;;13.10;;
2001;SDS011;1003;48.002;7.788;2023-02-15T15:33:46;21.30;;;13.23;;
2001;SDS011;1003;48.002;7.788;2023-02-15T15:40:01;20.70;;;12.83;;
2001;SDS011;1003;48.002;7.788;2023-02-15T15:43:29;23.47;;;13.40;;
2001;SDS011;1003;48.002;7.788;2023-02-15T15:46:40;25.40;;;13.97;;
2001;SDS011;1003;48.002;7.788;2023-02-15T15:49:28;22.50;;;13.77;;
2001;SDS011;1003;48.002;7.788;2023-02-15T15:52:01;24.13;;;13.40;;
2001;SDS011;1003;48.002;7.788;2023-02-15T15:54:36;24.20;;;13.60;;
2001;SDS011;1003;48.002;7.788;2023-02-15T15:57:14;24.23;;;14.30;;
2001;SDS011;1003;48.002;7.788;2023-02-15T15:59:47;23.23;;;13.20;;
2001;SDS011;1003;48.002;7.788;2023-02-15T16:02:16;25.83;;;14.50;;